Airport ID:KN38
Update Time (UTC):20/09/2021 02:55
Wind Speed (Knots):2
Wind Direction (Magnetic):70
Temperature (°C):12
Dew Point (°C):11
Humidity (%):92
Altimeter (inHg):30.26
Density Altitude (Feet):
Visibility:10+
Clouds (Hundreds of feet):CLR
Present Weather:
METAR:METAR KN38 200250Z AUTO 00000KT 10SM CLR 12/11 A3026 RMK AO2

The data displayed is for advisory purposes only and is not to be used for flight planning or operations.